Time;durP1;ratioP1;P1;durP2;ratioP2;P2;SDS_P1;SDS_P2;PMS_P1;PMS_P2;Temp;Humidity;BMP_temperature;BMP_pressure;BME280_temperature;BME280_humidity;BME280_pressure;Samples;Min_cycle;Max_cycle;Signal;HPM_P1;HPM_P2
2022/07/10 00:09:27;;;;;;;0.77;0.55;;;;;;;24.20;35.05;100515.94;18563145;32;20089;-56
2022/07/10 00:19:32;;;;;;;0.98;0.77;;;;;;;24.13;35.08;100511.91;18563179;32;20116;-56
2022/07/10 00:29:35;;;;;;;1.50;1.00;;;;;;;24.05;37.76;100507.03;18562677;32;20096;-56
2022/07/10 00:39:40;;;;;;;1.02;0.80;;;;;;;23.70;38.86;100498.22;18549203;32;20127;-56
2022/07/10 00:49:43;;;;;;;1.45;0.90;;;;;;;23.34;39.71;100499.34;18561784;32;20100;-56
2022/07/10 00:59:48;;;;;;;1.23;0.75;;;;;;;23.12;40.92;100484.47;18560863;32;20429;-55
2022/07/10 01:09:51;;;;;;;1.75;1.00;;;;;;;22.77;42.06;100481.03;18562457;32;20084;-56
2022/07/10 01:19:56;;;;;;;2.25;0.80;;;;;;;22.61;42.17;100478.31;18561099;32;20076;-56
2022/07/10 01:30:01;;;;;;;0.77;0.73;;;;;;;22.80;42.21;100475.53;18560581;32;20092;-56
2022/07/10 01:40:06;;;;;;;1.33;0.90;;;;;;;22.14;44.62;100467.31;18560082;32;20089;-56
2022/07/10 01:50:11;;;;;;;1.00;0.90;;;;;;;21.55;46.16;100460.31;18545127;32;20096;-55
2022/07/10 02:00:14;;;;;;;1.15;0.90;;;;;;;21.62;46.08;100455.59;18559144;32;20088;-55
2022/07/10 02:10:19;;;;;;;2.08;0.90;;;;;;;21.80;45.52;100442.38;18560750;32;20102;-56
2022/07/10 02:20:22;;;;;;;1.25;0.75;;;;;;;21.67;46.19;100427.06;18566479;32;20174;-56
2022/07/10 02:30:27;;;;;;;1.42;0.95;;;;;;;21.53;46.35;100425.03;18565732;32;20399;-55
2022/07/10 02:40:30;;;;;;;1.15;0.88;;;;;;;21.49;47.09;100439.41;18565839;32;20104;-55
2022/07/10 02:50:35;;;;;;;0.98;0.75;;;;;;;20.58;50.90;100434.59;18565222;32;20097;-55
2022/07/10 03:00:40;;;;;;;1.17;0.95;;;;;;;20.68;50.80;100444.78;18565131;32;20100;-55
2022/07/10 03:10:45;;;;;;;0.82;0.80;;;;;;;20.72;50.55;100435.75;18566031;32;20088;-55
2022/07/10 03:20:48;;;;;;;1.95;1.10;;;;;;;20.56;51.32;100440.87;18564016;32;20096;-55
2022/07/10 03:30:53;;;;;;;1.92;1.00;;;;;;;20.53;51.97;100439.22;18564132;32;20103;-55
2022/07/10 03:40:56;;;;;;;2.05;1.20;;;;;;;20.55;52.58;100447.13;18564053;32;20092;-55
2022/07/10 03:51:01;;;;;;;1.40;0.90;;;;;;;20.75;52.33;100440.94;18563249;32;20100;-55
2022/07/10 04:01:04;;;;;;;1.50;0.90;;;;;;;21.15;51.26;100433.87;18563347;32;20091;-55
2022/07/10 04:11:09;;;;;;;3.78;1.20;;;;;;;21.26;50.92;100430.69;18564426;32;20343;-55
2022/07/10 04:21:12;;;;;;;1.67;0.98;;;;;;;21.52;50.65;100423.31;18562952;32;20120;-55
2022/07/10 04:31:16;;;;;;;1.62;0.85;;;;;;;22.08;49.46;100404.69;18561891;32;20088;-56
2022/07/10 04:41:20;;;;;;;1.30;0.85;;;;;;;22.92;45.88;100397.72;18562137;32;20116;-56
2022/07/10 04:51:24;;;;;;;1.80;0.90;;;;;;;23.32;45.06;100392.00;18561913;32;20088;-56
2022/07/10 05:01:27;;;;;;;1.62;1.10;;;;;;;23.83;44.16;100385.63;18562197;32;20092;-56
2022/07/10 05:11:32;;;;;;;2.10;1.20;;;;;;;23.97;44.59;100392.81;18562912;32;20149;-56
2022/07/10 05:21:35;;;;;;;1.90;1.00;;;;;;;24.31;43.25;100390.81;18562113;32;20444;-55
2022/07/10 05:31:40;;;;;;;2.05;1.30;;;;;;;24.42;40.81;100387.50;18560531;32;20346;-56
2022/07/10 05:41:43;;;;;;;2.87;1.30;;;;;;;24.61;39.47;100373.03;18560110;32;20107;-56
2022/07/10 05:51:48;;;;;;;2.37;1.30;;;;;;;24.60;38.79;100371.31;18559799;32;20100;-55
2022/07/10 06:01:51;;;;;;;1.55;1.17;;;;;;;24.85;38.33;100359.13;18545624;32;20357;-56
2022/07/10 06:11:55;;;;;;;1.80;1.30;;;;;;;24.88;38.51;100356.28;18559425;32;20107;-56
2022/07/10 06:32:21;;;;;;;2.53;1.33;;;;;;;25.39;37.44;100366.37;18557106;32;20096;-55
2022/07/10 06:42:24;;;;;;;1.42;1.12;;;;;;;25.54;35.94;100367.22;18556702;32;20115;-55
2022/07/10 06:52:29;;;;;;;3.28;1.10;;;;;;;25.48;35.10;100375.59;18555796;32;20107;-56
2022/07/10 07:02:32;;;;;;;2.17;1.10;;;;;;;26.02;34.89;100363.16;18563169;32;20392;-55
2022/07/10 07:12:37;;;;;;;1.10;0.80;;;;;;;26.12;32.68;100356.22;18564764;32;20107;-56
2022/07/10 07:33:02;;;;;;;1.37;1.00;;;;;;;26.21;34.98;100361.94;18564321;32;20102;-55
2022/07/10 07:43:06;;;;;;;1.45;0.90;;;;;;;26.87;32.35;100356.44;18563851;32;20097;-56
2022/07/10 07:53:11;;;;;;;1.50;0.95;;;;;;;27.31;30.10;100361.34;18564003;32;20465;-55
2022/07/10 08:03:15;;;;;;;1.70;1.00;;;;;;;27.71;30.91;100358.44;18564702;32;20093;-55
2022/07/10 08:13:20;;;;;;;1.60;0.95;;;;;;;27.85;30.54;100338.59;18563046;32;20672;-55
2022/07/10 08:23:23;;;;;;;1.48;0.93;;;;;;;27.69;31.16;100357.66;18562999;32;20092;-55
2022/07/10 08:33:28;;;;;;;1.98;1.00;;;;;;;28.20;30.68;100353.81;18562539;32;20108;-55
2022/07/10 08:43:31;;;;;;;1.62;0.90;;;;;;;27.98;30.47;100350.09;18547564;32;20097;-55
2022/07/10 08:53:36;;;;;;;1.17;0.80;;;;;;;27.55;29.89;100347.97;18562050;32;20084;-55
2022/07/10 09:03:39;;;;;;;1.65;0.60;;;;;;;27.81;28.80;100343.34;18561796;32;20100;-55
2022/07/10 09:13:54;;;;;;;1.40;0.80;;;;;;;27.09;29.45;100341.50;18561431;32;20107;-55
2022/07/10 09:24:00;;;;;;;2.37;0.90;;;;;;;27.12;29.49;100333.22;18545997;32;20485;-55
2022/07/10 09:34:04;;;;;;;1.23;0.75;;;;;;;27.35;29.67;100328.84;18560606;32;20126;-55
2022/07/10 09:44:08;;;;;;;1.73;1.62;;;;;;;27.32;30.90;100326.41;18559797;32;20115;-55
2022/07/10 09:54:13;;;;;;;1.70;0.90;;;;;;;27.74;29.82;100301.00;18546311;32;20444;-55
2022/07/10 10:04:18;;;;;;;1.60;0.77;;;;;;;28.66;28.47;100301.03;18558799;32;20110;-54
2022/07/10 10:14:27;;;;;;;1.62;0.70;;;;;;;29.36;27.80;100299.91;18558325;32;20118;-55
2022/07/10 10:24:33;;;;;;;1.67;0.70;;;;;;;29.82;27.04;100284.41;18557023;32;20116;-55
2022/07/10 10:34:42;;;;;;;1.52;0.50;;;;;;;30.43;25.01;100273.81;18561510;32;20107;-55
2022/07/10 10:44:45;;;;;;;0.88;0.68;;;;;;;30.76;24.60;100247.59;18547240;32;20110;-54
2022/07/10 10:55:07;;;;;;;0.85;0.70;;;;;;;30.69;25.58;100257.22;18550968;32;20448;-54
2022/07/10 11:05:45;;;;;;;2.50;0.80;;;;;;;30.85;23.38;100256.69;18566318;32;20100;-55
2022/07/10 11:15:52;;;;;;;2.10;0.90;;;;;;;31.03;24.83;100242.50;18565045;32;20120;-54
2022/07/10 11:26:08;;;;;;;2.50;0.85;;;;;;;31.03;23.67;100245.22;18565019;32;20143;-54
2022/07/10 11:36:14;;;;;;;1.27;0.80;;;;;;;30.78;22.23;100263.59;18612837;31;20100;-55
2022/07/10 11:46:18;;;;;;;4.22;0.80;;;;;;;29.89;23.95;100274.81;18583543;31;20451;-55
2022/07/10 11:56:23;;;;;;;1.52;0.68;;;;;;;29.52;23.80;100337.12;18587286;31;20088;-55
2022/07/10 12:06:27;;;;;;;1.10;0.70;;;;;;;27.69;27.49;100338.91;18563632;32;20449;-55
2022/07/10 12:16:36;;;;;;;0.85;0.68;;;;;;;26.89;29.79;100324.19;18549896;32;20102;-55
2022/07/10 12:26:42;;;;;;;1.80;1.00;;;;;;;27.90;28.19;100292.66;18564157;32;20076;-54
2022/07/10 12:36:49;;;;;;;2.20;0.57;;;;;;;28.80;26.46;100290.97;18562031;32;20100;-54
2022/07/10 12:47:01;;;;;;;1.45;0.77;;;;;;;29.34;26.11;100300.00;18553721;31;73707;-56
2022/07/10 12:57:07;;;;;;;1.67;0.90;;;;;;;29.83;24.60;100307.66;18589583;31;20500;-54
2022/07/10 13:07:14;;;;;;;3.45;0.90;;;;;;;29.12;25.83;100309.03;18569500;31;20363;-55
2022/07/10 13:17:18;;;;;;;0.80;0.80;;;;;;;29.84;25.43;100281.59;18590032;31;20096;-54
2022/07/10 13:27:23;;;;;;;3.15;0.65;;;;;;;28.85;27.32;100309.44;18612250;31;20181;-55
2022/07/10 13:37:28;;;;;;;3.05;0.70;;;;;;;29.60;27.38;100299.69;18606062;31;20124;-56
2022/07/10 13:47:32;;;;;;;2.47;0.85;;;;;;;28.49;26.53;100266.63;18558676;32;20122;-54
2022/07/10 13:57:37;;;;;;;2.15;0.68;;;;;;;29.14;25.00;100269.44;18555304;32;20448;-54
2022/07/10 14:07:40;;;;;;;2.55;0.77;;;;;;;28.99;24.20;100268.00;18557433;32;20093;-54
2022/07/10 14:17:45;;;;;;;1.95;0.70;;;;;;;28.89;23.17;100284.06;18564912;32;20088;-56
2022/07/10 14:27:48;;;;;;;2.67;0.70;;;;;;;28.63;23.39;100273.56;18566429;32;20132;-55
2022/07/10 14:37:53;;;;;;;1.30;0.70;;;;;;;29.00;22.53;100269.72;18565523;32;20103;-54
2022/07/10 14:47:57;;;;;;;5.65;0.65;;;;;;;28.57;21.83;100280.28;18565592;31;20124;-55
2022/07/10 14:58:02;;;;;;;1.25;0.40;;;;;;;27.45;22.76;100298.69;18568608;31;20095;-56
2022/07/10 15:08:05;;;;;;;2.20;0.40;;;;;;;27.51;21.48;100308.94;18602538;31;20087;-54
2022/07/10 15:18:10;;;;;;;1.17;0.50;;;;;;;27.67;21.58;100306.84;18570101;31;20481;-55
2022/07/10 15:28:14;;;;;;;1.23;0.32;;;;;;;27.53;23.40;100317.72;18578500;31;20092;-54
2022/07/10 15:38:19;;;;;;;1.87;0.37;;;;;;;27.36;22.34;100314.47;18563426;31;20092;-55
2022/07/10 15:48:22;;;;;;;2.10;0.52;;;;;;;27.01;23.35;100309.94;18576994;31;20356;-55
2022/07/10 15:58:27;;;;;;;0.50;0.28;;;;;;;26.84;22.37;100311.97;18627730;31;20342;-55
2022/07/10 16:08:30;;;;;;;0.88;0.32;;;;;;;26.80;22.01;100315.84;18627921;31;20096;-56
2022/07/10 16:18:35;;;;;;;1.08;0.40;;;;;;;26.40;22.89;100324.91;18612956;31;20088;-55
2022/07/10 16:28:38;;;;;;;2.08;0.45;;;;;;;26.15;23.27;100326.56;18627894;31;20488;-54
2022/07/10 16:38:43;;;;;;;1.55;0.50;;;;;;;25.75;23.76;100340.00;18567501;31;20445;-55
2022/07/10 16:48:46;;;;;;;4.00;0.57;;;;;;;25.48;25.02;100348.87;18571622;31;20111;-54
2022/07/10 16:58:52;;;;;;;1.95;0.70;;;;;;;25.27;25.92;100370.69;18560498;32;20092;-57
2022/07/10 17:08:56;;;;;;;0.70;0.47;;;;;;;25.01;26.85;100372.37;18560820;32;20103;-55
2022/07/10 17:19:00;;;;;;;1.27;0.30;;;;;;;24.37;27.04;100377.09;18558804;32;20101;-56
2022/07/10 17:29:10;;;;;;;1.10;0.30;;;;;;;24.34;27.08;100379.97;18560470;32;20088;-54
2022/07/10 17:39:23;;;;;;;2.05;0.40;;;;;;;23.97;27.54;100390.97;18558104;31;20140;-55
2022/07/10 17:49:26;;;;;;;0.73;0.30;;;;;;;23.95;27.72;100395.53;18585419;31;20100;-54
2022/07/10 17:59:31;;;;;;;1.52;0.47;;;;;;;23.91;26.58;100407.34;18571935;31;20092;-57
2022/07/10 18:09:37;;;;;;;0.57;0.50;;;;;;;23.62;27.46;100425.00;18621468;31;20179;-58
2022/07/10 18:19:48;;;;;;;1.33;0.57;;;;;;;23.31;28.52;100438.22;18609630;31;20100;-55
2022/07/10 18:29:52;;;;;;;0.57;0.47;;;;;;;23.28;29.29;100449.06;18609478;31;20392;-56
2022/07/10 18:39:57;;;;;;;1.08;0.68;;;;;;;22.79;31.01;100473.81;18621947;31;20548;-56
2022/07/10 18:50:01;;;;;;;1.95;0.73;;;;;;;22.42;30.51;100468.56;18622743;31;20096;-56
2022/07/10 19:00:06;;;;;;;2.55;0.80;;;;;;;22.20;30.42;100477.66;18615659;31;20694;-56
2022/07/10 19:10:10;;;;;;;1.20;0.88;;;;;;;21.96;30.98;100485.00;18630475;31;20104;-56
2022/07/10 19:20:18;;;;;;;0.50;0.50;;;;;;;21.97;31.27;100497.38;18630534;31;20122;-56
2022/07/10 19:30:22;;;;;;;0.98;0.60;;;;;;;21.67;31.73;100528.00;18613204;31;20436;-55
2022/07/10 19:40:28;;;;;;;1.10;0.68;;;;;;;21.76;31.77;100540.84;18629454;31;20100;-55
2022/07/10 19:50:32;;;;;;;2.47;0.65;;;;;;;21.69;32.56;100544.72;18614159;31;20096;-55
2022/07/10 20:00:36;;;;;;;0.85;0.50;;;;;;;21.45;33.50;100563.47;18564712;32;20085;-55
2022/07/10 20:10:40;;;;;;;1.80;0.60;;;;;;;21.43;33.77;100567.97;18562757;32;20369;-55
2022/07/10 20:20:44;;;;;;;1.00;0.73;;;;;;;21.11;34.16;100575.59;18567060;31;20103;-56
2022/07/10 20:30:48;;;;;;;1.08;0.70;;;;;;;20.87;34.75;100582.81;18562870;32;20118;-56
2022/07/10 20:40:52;;;;;;;0.80;0.60;;;;;;;21.03;34.73;100583.03;18566954;31;20100;-56
2022/07/10 20:50:56;;;;;;;1.08;0.60;;;;;;;20.87;35.84;100601.41;18614960;31;20118;-56
2022/07/10 21:01:01;;;;;;;1.23;0.50;;;;;;;20.97;35.72;100609.84;18625338;31;20108;-56
2022/07/10 21:11:05;;;;;;;0.73;0.62;;;;;;;20.49;37.07;100617.94;18625841;31;20123;-56
2022/07/10 21:21:09;;;;;;;0.70;0.60;;;;;;;20.59;36.73;100615.78;18624352;31;20140;-56
2022/07/10 21:31:12;;;;;;;1.30;0.70;;;;;;;20.42;37.25;100635.03;18624617;31;20149;-56
2022/07/10 21:41:18;;;;;;;1.58;0.55;;;;;;;20.16;37.93;100642.19;18626093;31;20151;-56
2022/07/10 21:51:21;;;;;;;1.27;0.62;;;;;;;20.20;37.62;100649.09;18610208;31;20709;-56
2022/07/10 22:01:25;;;;;;;1.83;0.50;;;;;;;20.24;37.83;100654.22;18623274;31;20475;-56
2022/07/10 22:11:29;;;;;;;0.40;0.40;;;;;;;20.05;38.24;100656.72;18624178;31;20372;-56
2022/07/10 22:21:33;;;;;;;0.30;0.30;;;;;;;20.15;38.05;100659.88;18616973;31;20106;-56
2022/07/10 22:31:37;;;;;;;1.33;0.68;;;;;;;20.11;38.14;100666.22;18573404;31;20455;-55
2022/07/10 22:41:42;;;;;;;1.12;0.70;;;;;;;19.85;39.02;100675.13;18566086;32;20141;-56
2022/07/10 22:51:45;;;;;;;0.50;0.50;;;;;;;19.65;39.61;100684.66;18565353;32;20088;-56
2022/07/10 23:01:50;;;;;;;1.30;0.65;;;;;;;19.63;39.56;100691.75;18565360;32;20118;-56
2022/07/10 23:11:53;;;;;;;1.00;0.60;;;;;;;19.58;40.13;100689.28;18564892;32;20098;-56
2022/07/10 23:21:58;;;;;;;0.93;0.70;;;;;;;19.39;40.37;100691.72;18564802;32;20111;-56
2022/07/10 23:32:01;;;;;;;1.45;0.40;;;;;;;19.34;40.74;100688.34;18565678;32;20149;-56
2022/07/10 23:42:06;;;;;;;1.35;0.55;;;;;;;19.23;41.17;100684.28;18563258;32;20093;-55
2022/07/10 23:52:10;;;;;;;1.48;0.80;;;;;;;19.18;42.13;100683.59;18563848;32;20137;-56
